createdAt,value
2023-01-13T00:00:47.186Z,3.65
2023-01-13T00:03:13.541Z,4.05
2023-01-13T00:05:39.917Z,5.00
2023-01-13T00:08:06.495Z,5.13
2023-01-13T00:10:34.010Z,4.10
2023-01-13T00:13:01.938Z,4.40
2023-01-13T00:15:28.456Z,2.72
2023-01-13T00:17:54.791Z,3.13
2023-01-13T00:20:21.138Z,3.72
2023-01-13T00:22:47.463Z,3.10
2023-01-13T00:25:13.744Z,3.92
2023-01-13T00:27:40.144Z,4.15
2023-01-13T00:30:07.431Z,3.75
2023-01-13T00:32:33.864Z,3.38
2023-01-13T00:35:00.171Z,3.27
2023-01-13T00:37:27.232Z,5.90
2023-01-13T00:39:53.644Z,3.70
2023-01-13T00:42:38.716Z,3.58
2023-01-13T00:45:05.709Z,4.40
2023-01-13T00:47:32.010Z,3.87
2023-01-13T00:49:58.346Z,4.15
2023-01-13T00:52:24.662Z,3.58
2023-01-13T00:54:50.949Z,3.67
2023-01-13T00:57:17.293Z,4.28
2023-01-13T00:59:43.564Z,3.23
2023-01-13T01:02:10.609Z,3.60
2023-01-13T01:04:36.925Z,3.65
2023-01-13T01:07:03.230Z,3.30
2023-01-13T01:09:32.667Z,3.63
2023-01-13T01:12:00.540Z,3.47
2023-01-13T01:14:27.434Z,3.00
2023-01-13T01:16:54.433Z,3.20
2023-01-13T01:19:20.713Z,5.25
2023-01-13T01:21:47.070Z,3.85
2023-01-13T01:24:13.355Z,2.80
2023-01-13T01:26:41.722Z,5.03
2023-01-13T01:29:11.920Z,4.55
2023-01-13T01:31:38.249Z,3.58
2023-01-13T01:34:04.561Z,4.57
2023-01-13T01:36:30.996Z,4.13
2023-01-13T01:38:59.114Z,3.53
2023-01-13T01:41:28.870Z,3.17
2023-01-13T01:43:59.025Z,4.40
2023-01-13T01:46:41.529Z,2.80
2023-01-13T01:49:29.266Z,5.77
2023-01-13T01:52:06.677Z,3.25
2023-01-13T01:54:46.845Z,4.85
2023-01-13T01:57:19.635Z,4.18
2023-01-13T01:59:46.211Z,3.33
2023-01-13T02:02:12.881Z,4.83
2023-01-13T02:04:43.083Z,4.70
2023-01-13T02:07:09.441Z,3.08
2023-01-13T02:09:36.527Z,3.78
2023-01-13T02:12:21.395Z,3.47
2023-01-13T02:14:47.849Z,4.87
2023-01-13T02:17:35.904Z,3.63
2023-01-13T02:20:27.110Z,4.50
2023-01-13T02:23:36.597Z,4.55
2023-01-13T02:26:35.605Z,2.72
2023-01-13T02:29:52.137Z,5.17
2023-01-13T02:32:35.645Z,4.38
2023-01-13T02:35:01.897Z,2.58
2023-01-13T02:37:32.808Z,4.03
2023-01-13T02:40:05.837Z,3.78
2023-01-13T02:42:53.053Z,3.50
2023-01-13T02:45:26.066Z,3.00
2023-01-13T02:47:55.728Z,3.25
2023-01-13T02:50:48.621Z,3.63
2023-01-13T02:53:21.731Z,3.40
2023-01-13T02:55:51.436Z,3.77
2023-01-13T02:58:22.452Z,3.13
2023-01-13T03:00:49.320Z,3.17
2023-01-13T03:03:15.723Z,3.80
2023-01-13T03:05:44.760Z,4.50
2023-01-13T03:08:43.156Z,3.60
2023-01-13T03:11:12.803Z,3.92
2023-01-13T03:14:10.818Z,3.88
2023-01-13T03:17:11.186Z,3.60
2023-01-13T03:19:46.606Z,5.38
2023-01-13T03:22:38.212Z,3.37
2023-01-13T03:25:15.355Z,3.60
2023-01-13T03:27:50.509Z,5.03
2023-01-13T03:30:42.607Z,2.92
2023-01-13T03:33:15.686Z,4.18
2023-01-13T03:35:45.894Z,4.47
2023-01-13T03:38:20.091Z,3.33
2023-01-13T03:40:59.864Z,3.40
2023-01-13T03:43:55.525Z,3.75
2023-01-13T03:46:29.415Z,2.75
2023-01-13T03:48:59.508Z,4.17
2023-01-13T03:51:30.928Z,3.30
2023-01-13T03:54:04.562Z,3.20
2023-01-13T03:56:42.754Z,3.17
2023-01-13T03:59:14.353Z,3.22
2023-01-13T04:02:03.646Z,3.27
2023-01-13T04:04:34.594Z,2.90
2023-01-13T04:07:31.518Z,3.47
2023-01-13T04:10:01.985Z,3.05
2023-01-13T04:12:49.423Z,2.85
2023-01-13T04:15:18.236Z,3.63
2023-01-13T04:17:44.604Z,3.95
2023-01-13T04:20:11.375Z,4.78
2023-01-13T04:22:37.776Z,3.65
2023-01-13T04:25:04.895Z,3.35
2023-01-13T04:27:31.258Z,3.20
2023-01-13T04:29:57.708Z,3.55
2023-01-13T04:32:24.072Z,3.50
2023-01-13T04:34:50.495Z,3.88
2023-01-13T04:37:16.788Z,4.18
2023-01-13T04:39:43.121Z,3.40
2023-01-13T04:42:09.538Z,3.30
2023-01-13T04:44:36.045Z,2.75
2023-01-13T04:47:02.662Z,4.60
2023-01-13T04:49:28.950Z,2.95
2023-01-13T04:51:55.428Z,3.50
2023-01-13T04:54:21.797Z,3.50
2023-01-13T04:56:48.135Z,5.10
2023-01-13T04:59:14.779Z,4.90
2023-01-13T05:01:41.349Z,3.10
2023-01-13T05:04:08.113Z,3.60
2023-01-13T05:06:34.532Z,2.85
2023-01-13T05:09:00.842Z,3.20
2023-01-13T05:11:45.660Z,3.22
2023-01-13T05:14:34.920Z,3.80
2023-01-13T05:17:01.741Z,3.27
2023-01-13T05:19:28.827Z,3.60
2023-01-13T05:22:13.841Z,3.10
2023-01-13T05:24:59.564Z,3.10
2023-01-13T05:27:26.255Z,2.75
2023-01-13T05:29:52.837Z,2.90
2023-01-13T05:32:19.377Z,3.00
2023-01-13T05:34:45.785Z,2.63
2023-01-13T05:37:13.177Z,3.28
2023-01-13T05:39:59.659Z,3.03
2023-01-13T05:42:45.036Z,2.93
2023-01-13T05:45:12.472Z,3.40
2023-01-13T05:47:39.035Z,3.25
2023-01-13T05:50:05.564Z,4.63
2023-01-13T05:52:32.203Z,3.58
2023-01-13T05:54:58.605Z,2.70
2023-01-13T05:57:25.055Z,3.10
2023-01-13T05:59:51.420Z,3.78
2023-01-13T06:02:17.800Z,3.22
2023-01-13T06:04:45.258Z,3.42
2023-01-13T06:07:12.425Z,3.00
2023-01-13T06:09:38.832Z,2.90
2023-01-13T06:12:05.555Z,2.35
2023-01-13T06:14:40.903Z,3.47
2023-01-13T06:17:08.829Z,3.30
2023-01-13T06:19:35.384Z,5.03
2023-01-13T06:22:16.667Z,2.58
2023-01-13T06:24:45.877Z,3.25
2023-01-13T06:27:12.872Z,2.88
2023-01-13T06:29:39.251Z,3.47
2023-01-13T06:32:11.278Z,3.13
2023-01-13T06:34:38.285Z,3.03
2023-01-13T06:37:05.237Z,2.55
2023-01-13T06:39:31.953Z,3.15
2023-01-13T06:42:17.838Z,3.80
2023-01-13T06:44:45.517Z,6.90
2023-01-13T06:47:15.635Z,3.25
2023-01-13T06:49:41.999Z,2.72
2023-01-13T06:52:08.280Z,3.20
2023-01-13T06:54:34.732Z,4.22
2023-01-13T06:57:01.907Z,4.17
2023-01-13T06:59:29.892Z,2.40
2023-01-13T07:01:57.156Z,2.78
2023-01-13T07:04:23.977Z,3.90
2023-01-13T07:06:50.437Z,2.65
2023-01-13T07:09:16.951Z,3.20
2023-01-13T07:11:43.543Z,2.97
2023-01-13T07:14:28.499Z,3.22
2023-01-13T07:16:54.952Z,4.53
2023-01-13T07:19:23.899Z,2.78
2023-01-13T07:21:53.464Z,3.10
2023-01-13T07:24:20.116Z,3.58
2023-01-13T07:26:46.470Z,3.40
2023-01-13T07:29:13.094Z,2.47
2023-01-13T07:31:39.876Z,3.42
2023-01-13T07:34:09.589Z,2.90
2023-01-13T07:36:36.480Z,2.20
2023-01-13T07:39:03.269Z,2.35
2023-01-13T07:41:50.939Z,2.72
2023-01-13T07:44:17.379Z,5.07
2023-01-13T07:46:43.849Z,3.83
2023-01-13T07:49:10.351Z,3.25
2023-01-13T07:51:38.815Z,11.43
2023-01-13T07:54:05.743Z,3.75
2023-01-13T07:56:32.545Z,6.55
2023-01-13T07:59:00.497Z,2.23
2023-01-13T08:01:27.954Z,3.08
2023-01-13T08:03:56.132Z,3.08
2023-01-13T08:06:22.491Z,4.18
2023-01-13T08:08:48.888Z,3.70
2023-01-13T08:11:15.392Z,3.37
2023-01-13T08:13:41.707Z,3.13
2023-01-13T08:16:10.588Z,3.28
2023-01-13T08:18:38.241Z,2.50
2023-01-13T08:21:07.794Z,2.35
2023-01-13T08:23:34.359Z,3.53
2023-01-13T08:26:02.656Z,2.90
2023-01-13T08:28:29.550Z,3.03
2023-01-13T08:30:59.683Z,3.42
2023-01-13T08:33:26.289Z,3.30
2023-01-13T08:35:53.226Z,2.83
2023-01-13T08:38:20.275Z,3.08
2023-01-13T08:40:46.612Z,3.13
2023-01-13T08:43:13.040Z,3.03
2023-01-13T08:45:39.351Z,2.97
2023-01-13T08:48:06.021Z,2.80
2023-01-13T08:50:32.493Z,4.82
2023-01-13T08:52:58.843Z,3.75
2023-01-13T08:55:25.173Z,2.92
2023-01-13T08:57:52.121Z,4.35
2023-01-13T09:00:19.847Z,3.13
2023-01-13T09:02:46.213Z,3.10
2023-01-13T09:05:12.630Z,3.22
2023-01-13T09:07:39.085Z,3.75
2023-01-13T09:10:07.234Z,3.03
2023-01-13T09:12:51.901Z,2.93
2023-01-13T09:15:21.683Z,3.22
2023-01-13T09:17:48.183Z,3.60
2023-01-13T09:20:14.763Z,3.10
2023-01-13T09:22:41.353Z,3.30
2023-01-13T09:25:08.621Z,2.77
2023-01-13T09:27:34.975Z,3.22
2023-01-13T09:30:01.429Z,2.75
2023-01-13T09:32:27.819Z,2.40
2023-01-13T09:35:00.366Z,2.97
2023-01-13T09:37:39.245Z,3.20
2023-01-13T09:40:12.202Z,2.47
2023-01-13T09:43:19.551Z,3.25
2023-01-13T09:45:58.771Z,2.72
2023-01-13T09:48:32.309Z,2.55
2023-01-13T09:51:02.608Z,3.00
2023-01-13T09:53:33.011Z,3.42
2023-01-13T09:56:00.052Z,3.58
2023-01-13T09:58:27.090Z,3.17
2023-01-13T10:00:53.462Z,2.55
2023-01-13T10:03:29.271Z,2.93
2023-01-13T10:06:21.411Z,3.13
2023-01-13T10:08:49.359Z,2.85
2023-01-13T10:11:42.884Z,3.75
2023-01-13T10:14:30.836Z,2.85
2023-01-13T10:17:26.345Z,3.97
2023-01-13T10:20:05.199Z,2.50
2023-01-13T10:22:49.618Z,3.90
2023-01-13T10:25:41.621Z,2.17
2023-01-13T10:28:13.778Z,4.40
2023-01-13T10:30:43.580Z,3.17
2023-01-13T10:33:34.175Z,2.85
2023-01-13T10:36:36.359Z,2.85
2023-01-13T10:39:32.387Z,3.20
2023-01-13T10:42:08.026Z,2.22
2023-01-13T10:44:56.391Z,2.53
2023-01-13T10:47:38.491Z,2.80
2023-01-13T10:50:11.483Z,2.53
2023-01-13T10:52:43.247Z,3.63
2023-01-13T10:55:36.750Z,3.47
2023-01-13T10:58:24.364Z,3.33
2023-01-13T11:04:28.940Z,3.00
2023-01-13T11:06:59.798Z,3.05
2023-01-13T11:09:31.042Z,2.72
2023-01-13T11:12:03.801Z,2.60
2023-01-13T11:14:57.489Z,3.88
2023-01-13T11:17:44.531Z,2.85
2023-01-13T11:20:31.484Z,3.00
2023-01-13T11:23:01.986Z,3.53
2023-01-13T11:25:48.323Z,3.60
2023-01-13T11:28:42.137Z,2.30
2023-01-13T11:31:45.836Z,2.70
2023-01-13T11:34:37.809Z,3.20
2023-01-13T11:37:26.823Z,3.63
2023-01-13T11:40:14.770Z,3.80
2023-01-13T11:43:05.391Z,3.25
2023-01-13T11:45:48.655Z,3.13
2023-01-13T11:48:26.312Z,5.50
2023-01-13T11:51:34.188Z,5.85
2023-01-13T11:54:29.656Z,4.13
2023-01-13T11:57:12.830Z,3.20
2023-01-13T12:00:14.347Z,3.88
2023-01-13T12:03:26.288Z,4.65
2023-01-13T12:06:31.123Z,2.45
2023-01-13T12:09:33.365Z,3.17
2023-01-13T12:13:00.898Z,2.95
2023-01-13T12:16:20.272Z,2.72
2023-01-13T12:19:20.825Z,3.75
2023-01-13T12:22:36.000Z,2.97
2023-01-13T12:25:45.014Z,5.03
2023-01-13T12:28:21.062Z,2.17
2023-01-13T12:33:51.452Z,4.03
2023-01-13T12:36:52.372Z,2.63
2023-01-13T12:39:56.813Z,3.97
2023-01-13T12:45:48.652Z,2.95
2023-01-13T12:48:57.357Z,3.10
2023-01-13T12:51:37.009Z,4.35
2023-01-13T12:54:37.516Z,4.10
2023-01-13T12:57:25.534Z,4.43
2023-01-13T13:00:04.115Z,3.45
2023-01-13T13:02:38.494Z,3.35
2023-01-13T13:05:23.324Z,3.33
2023-01-13T13:08:00.919Z,3.33
2023-01-13T13:10:33.816Z,6.53
2023-01-13T13:13:20.660Z,4.82
2023-01-13T13:15:49.560Z,8.05
2023-01-13T13:18:20.461Z,4.97
2023-01-13T13:21:09.643Z,4.13
2023-01-13T13:24:04.843Z,3.10
2023-01-13T13:26:38.382Z,4.90
2023-01-13T13:29:29.904Z,4.20
2023-01-13T13:32:25.899Z,3.92
2023-01-13T13:35:16.057Z,4.57
2023-01-13T13:38:13.766Z,4.57
2023-01-13T13:41:03.083Z,5.82
2023-01-13T13:43:55.507Z,3.33
2023-01-13T13:46:45.190Z,4.15
2023-01-13T13:49:13.217Z,3.20
2023-01-13T13:51:54.281Z,5.45
2023-01-13T13:54:22.744Z,5.07
2023-01-13T13:56:50.661Z,4.75
2023-01-13T13:59:23.852Z,4.63
2023-01-13T14:02:01.316Z,3.97
2023-01-13T14:04:33.386Z,4.43
2023-01-13T14:07:04.325Z,5.20
2023-01-13T14:09:41.320Z,3.72
2023-01-13T14:12:17.766Z,3.97
2023-01-13T14:14:45.639Z,5.37
2023-01-13T14:17:20.266Z,4.82
2023-01-13T14:19:53.375Z,4.57
2023-01-13T14:22:20.317Z,3.78
2023-01-13T14:24:49.382Z,5.95
2023-01-13T14:27:18.389Z,3.93
2023-01-13T14:29:45.214Z,4.35
2023-01-13T14:32:19.829Z,4.57
2023-01-13T14:34:46.986Z,5.25
2023-01-13T14:37:28.736Z,3.90
2023-01-13T14:39:55.529Z,3.67
2023-01-13T14:42:22.211Z,3.70
2023-01-13T14:44:50.604Z,3.20
2023-01-13T14:47:22.997Z,3.15
2023-01-13T14:50:00.568Z,4.03
2023-01-13T14:52:29.747Z,3.80
2023-01-13T14:54:58.953Z,2.85
2023-01-13T14:57:39.840Z,3.83
2023-01-13T15:00:15.119Z,3.60
2023-01-13T15:02:58.368Z,2.63
2023-01-13T15:05:27.794Z,3.30
2023-01-13T17:39:30.897Z,10.70
2023-01-13T17:41:57.422Z,7.53
2023-01-13T17:44:23.965Z,7.40
2023-01-13T17:46:50.829Z,5.68
2023-01-13T17:49:19.645Z,10.77
2023-01-13T17:51:48.334Z,9.60
2023-01-13T17:54:15.217Z,13.35
2023-01-13T17:56:42.539Z,7.27
2023-01-13T17:59:11.260Z,6.70
2023-01-13T18:01:38.675Z,5.47
2023-01-13T18:04:06.657Z,6.97
2023-01-13T18:06:33.788Z,5.78
2023-01-13T18:09:00.517Z,6.97
2023-01-13T18:11:27.423Z,8.75
2023-01-13T18:13:56.625Z,5.32
2023-01-13T18:16:25.273Z,9.00
2023-01-13T18:19:19.576Z,6.72
2023-01-13T18:22:05.734Z,6.30
2023-01-13T18:24:51.357Z,5.10
2023-01-13T18:27:23.933Z,5.85
2023-01-13T18:29:52.903Z,5.60
2023-01-13T18:32:20.240Z,6.10
2023-01-13T18:34:47.945Z,8.17
2023-01-13T18:37:16.385Z,7.45
2023-01-13T18:39:42.926Z,6.97
2023-01-13T18:42:29.141Z,5.07
2023-01-13T18:44:57.951Z,7.20
2023-01-13T18:47:29.358Z,7.63
2023-01-13T18:49:56.949Z,8.18
2023-01-13T18:52:24.471Z,9.88
2023-01-13T18:54:51.199Z,6.90
2023-01-13T18:57:17.911Z,7.53
2023-01-13T18:59:44.360Z,7.10
2023-01-13T19:02:15.330Z,8.70
2023-01-13T19:04:42.294Z,8.75
2023-01-13T19:07:12.123Z,10.13
2023-01-13T19:09:39.487Z,10.10
2023-01-13T19:12:10.023Z,9.20
2023-01-13T19:14:37.807Z,8.95
2023-01-13T19:17:06.627Z,10.30
2023-01-13T19:19:33.226Z,10.25
2023-01-13T19:21:59.544Z,8.15
2023-01-13T19:24:26.275Z,7.27
2023-01-13T19:26:54.656Z,9.32
2023-01-13T19:29:21.755Z,8.27
2023-01-13T19:31:48.374Z,8.82
2023-01-13T19:34:15.461Z,7.57
2023-01-13T19:36:42.278Z,6.17
2023-01-13T19:39:09.988Z,8.38
2023-01-13T19:41:55.366Z,7.28
2023-01-13T19:44:40.293Z,7.40
2023-01-13T19:47:06.720Z,8.60
2023-01-13T19:49:33.618Z,8.83
2023-01-13T19:52:00.111Z,8.40
2023-01-13T19:54:26.766Z,10.40
2023-01-13T19:56:53.392Z,6.65
2023-01-13T19:59:22.117Z,6.53
2023-01-13T20:01:48.793Z,6.10
2023-01-13T20:04:17.158Z,7.05
2023-01-13T20:06:44.305Z,5.78
2023-01-13T20:09:11.460Z,6.43
2023-01-13T20:11:37.835Z,7.75
2023-01-13T20:14:04.407Z,7.43
2023-01-13T20:16:33.200Z,7.00
2023-01-13T20:18:59.642Z,7.15
2023-01-13T20:21:26.568Z,6.22
2023-01-13T20:23:53.280Z,6.43
2023-01-13T20:26:20.434Z,6.83
2023-01-13T20:28:47.551Z,7.30
2023-01-13T20:31:14.972Z,7.57
2023-01-13T20:33:42.142Z,7.68
2023-01-13T20:36:15.916Z,9.02
2023-01-13T20:38:42.458Z,7.87
2023-01-13T20:41:27.590Z,12.18
2023-01-13T20:43:54.437Z,8.25
2023-01-13T20:46:22.619Z,6.43
2023-01-13T20:48:49.025Z,8.60
2023-01-13T20:51:15.553Z,6.27
2023-01-13T20:53:42.024Z,7.15
2023-01-13T20:56:09.114Z,7.63
2023-01-13T20:58:38.263Z,6.07
2023-01-13T21:01:04.998Z,6.63
2023-01-13T21:03:31.609Z,7.53
2023-01-13T21:05:58.483Z,6.75
2023-01-13T21:08:25.007Z,7.63
2023-01-13T21:10:51.554Z,7.60
2023-01-13T21:13:36.731Z,6.20
2023-01-13T21:16:03.568Z,8.53
2023-01-13T21:18:48.596Z,5.15
2023-01-13T21:21:15.683Z,4.45
2023-01-13T21:23:47.223Z,5.57
2023-01-13T21:26:15.673Z,5.70
2023-01-13T21:28:42.254Z,5.37
2023-01-13T21:31:09.438Z,5.53
2023-01-13T21:33:36.644Z,6.90
2023-01-13T21:36:08.350Z,5.43
2023-01-13T21:38:35.724Z,5.30
2023-01-13T21:41:07.114Z,4.07
2023-01-13T21:43:53.406Z,4.85
2023-01-13T21:46:39.645Z,6.07
2023-01-13T21:49:06.566Z,3.85
2023-01-13T21:51:35.390Z,4.32
2023-01-13T21:54:01.965Z,3.83
2023-01-13T21:56:28.471Z,4.53
2023-01-13T21:58:57.887Z,4.13
2023-01-13T22:01:25.398Z,4.95
2023-01-13T22:04:10.596Z,4.68
2023-01-13T22:06:37.243Z,5.00
2023-01-13T22:09:03.763Z,5.97
2023-01-13T22:11:32.193Z,3.88
2023-01-13T22:14:11.046Z,5.72
2023-01-13T22:16:48.597Z,6.50
2023-01-13T22:19:15.084Z,4.43
2023-01-13T22:21:41.933Z,4.88
2023-01-13T22:24:09.497Z,3.95
2023-01-13T22:26:36.092Z,3.90
2023-01-13T22:29:02.635Z,4.55
2023-01-13T22:31:31.365Z,3.67
2023-01-13T22:33:58.017Z,4.72
2023-01-13T22:36:24.654Z,4.13
2023-01-13T22:38:56.387Z,5.47
2023-01-13T22:41:23.259Z,4.47
2023-01-13T22:43:49.843Z,15.53
2023-01-13T22:46:17.139Z,6.97
2023-01-13T22:48:44.238Z,5.15
2023-01-13T22:51:13.050Z,4.97
2023-01-13T22:53:40.513Z,3.75
2023-01-13T22:56:15.145Z,6.23
2023-01-13T22:58:41.708Z,6.03
2023-01-13T23:01:10.817Z,5.75
2023-01-13T23:03:37.557Z,3.78
2023-01-13T23:06:04.718Z,4.82
2023-01-13T23:08:31.380Z,6.97
2023-01-13T23:11:07.080Z,6.38
2023-01-13T23:13:34.028Z,4.45
2023-01-13T23:16:14.546Z,6.55
2023-01-13T23:18:42.769Z,3.78
2023-01-13T23:21:12.595Z,4.80
2023-01-13T23:23:39.615Z,3.80
2023-01-13T23:26:07.290Z,6.50
2023-01-13T23:28:35.492Z,9.25
2023-01-13T23:31:10.271Z,6.05
2023-01-13T23:33:41.171Z,6.07
2023-01-13T23:36:12.976Z,6.65
2023-01-13T23:38:40.493Z,5.72
2023-01-13T23:41:09.018Z,4.13
2023-01-13T23:43:35.959Z,5.10
2023-01-13T23:46:04.775Z,4.50
2023-01-13T23:48:32.886Z,5.13
2023-01-13T23:51:01.019Z,4.82
2023-01-13T23:53:33.593Z,5.65
2023-01-13T23:56:01.819Z,4.55
2023-01-13T23:58:29.763Z,3.70
